createdAt,value
2023-07-21T00:00:23.438Z,100.00
2023-07-21T00:02:54.413Z,100.00
2023-07-21T00:05:24.296Z,100.00
2023-07-21T00:07:52.546Z,100.00
2023-07-21T00:10:21.879Z,100.00
2023-07-21T00:12:50.327Z,100.00
2023-07-21T00:15:20.242Z,100.00
2023-07-21T00:17:49.596Z,100.00
2023-07-21T00:20:23.182Z,100.00
2023-07-21T00:22:52.144Z,100.00
2023-07-21T00:25:21.577Z,100.00
2023-07-21T00:27:49.667Z,100.00
2023-07-21T00:30:19.417Z,100.00
2023-07-21T00:32:47.626Z,100.00
2023-07-21T00:35:16.048Z,100.00
2023-07-21T00:37:43.922Z,100.00
2023-07-21T00:40:16.957Z,100.00
2023-07-21T00:42:46.889Z,100.00
2023-07-21T00:45:15.852Z,100.00
2023-07-21T00:47:45.023Z,100.00
2023-07-21T00:50:16.458Z,100.00
2023-07-21T00:52:44.871Z,100.00
2023-07-21T00:55:13.425Z,100.00
2023-07-21T00:57:43.849Z,100.00
2023-07-21T01:00:14.672Z,100.00
2023-07-21T01:02:43.553Z,100.00
2023-07-21T01:05:13.797Z,100.00
2023-07-21T01:07:43.442Z,100.00
2023-07-21T01:10:14.552Z,100.00
2023-07-21T01:12:42.535Z,100.00
2023-07-21T01:15:13.105Z,100.00
2023-07-21T01:17:42.457Z,100.00
2023-07-21T01:20:12.322Z,100.00
2023-07-21T01:22:47.824Z,100.00
2023-07-21T01:25:18.814Z,100.00
2023-07-21T01:27:50.757Z,100.00
2023-07-21T01:30:21.144Z,100.00
2023-07-21T01:32:52.280Z,100.00
2023-07-21T01:35:23.506Z,100.00
2023-07-21T01:37:51.691Z,100.00
2023-07-21T01:40:21.506Z,100.00
2023-07-21T01:42:49.851Z,100.00
2023-07-21T01:45:17.901Z,100.00
2023-07-21T01:47:48.486Z,100.00
2023-07-21T01:50:19.940Z,100.00
2023-07-21T01:52:49.474Z,100.00
2023-07-21T01:55:22.228Z,100.00
2023-07-21T01:57:56.419Z,100.00
2023-07-21T02:00:30.705Z,100.00
2023-07-21T02:03:05.897Z,100.00
2023-07-21T02:05:35.071Z,100.00
2023-07-21T02:08:03.063Z,100.00
2023-07-21T02:10:32.408Z,100.00
2023-07-21T02:13:12.874Z,100.00
2023-07-21T02:15:41.399Z,100.00
2023-07-21T02:18:09.300Z,100.00
2023-07-21T02:20:37.281Z,100.00
2023-07-21T02:23:06.296Z,100.00
2023-07-21T02:25:35.570Z,100.00
2023-07-21T02:28:03.751Z,100.00
2023-07-21T02:30:32.465Z,100.00
2023-07-21T02:33:00.723Z,100.00
2023-07-21T02:35:30.031Z,100.00
2023-07-21T02:38:01.646Z,100.00
2023-07-21T02:40:31.329Z,100.00
2023-07-21T02:43:01.036Z,100.00
2023-07-21T02:45:29.173Z,100.00
2023-07-21T02:47:57.146Z,100.00
2023-07-21T02:50:26.342Z,100.00
2023-07-21T02:52:55.624Z,100.00
2023-07-21T02:55:23.991Z,100.00
2023-07-21T02:57:53.167Z,100.00
2023-07-21T03:00:29.247Z,100.00
2023-07-21T03:03:06.320Z,100.00
2023-07-21T03:05:35.560Z,100.00
2023-07-21T03:08:04.966Z,100.00
2023-07-21T03:10:33.164Z,100.00
2023-07-21T03:13:01.293Z,100.00
2023-07-21T03:15:34.599Z,100.00
2023-07-21T03:18:06.165Z,100.00
2023-07-21T03:20:50.884Z,100.00
2023-07-21T03:23:19.014Z,100.00
2023-07-21T03:25:47.513Z,100.00
2023-07-21T03:28:17.471Z,100.00
2023-07-21T03:30:46.803Z,100.00
2023-07-21T03:33:22.745Z,100.00
2023-07-21T03:36:02.743Z,100.00
2023-07-21T03:38:33.459Z,100.00
2023-07-21T03:41:06.453Z,100.00
2023-07-21T03:43:36.358Z,100.00
2023-07-21T03:46:07.953Z,100.00
2023-07-21T03:49:02.094Z,100.00
2023-07-21T03:51:31.030Z,100.00
2023-07-21T03:53:59.456Z,100.00
2023-07-21T03:56:28.319Z,100.00
2023-07-21T03:58:57.903Z,100.00
2023-07-21T04:01:30.746Z,100.00
2023-07-21T04:03:58.848Z,100.00
2023-07-21T04:06:27.317Z,100.00
2023-07-21T04:08:55.741Z,100.00
2023-07-21T04:11:23.720Z,100.00
2023-07-21T04:13:51.639Z,100.00
2023-07-21T04:16:19.564Z,100.00
2023-07-21T04:18:48.921Z,100.00
2023-07-21T04:21:16.757Z,100.00
2023-07-21T04:23:45.506Z,100.00
2023-07-21T04:26:16.063Z,100.00
2023-07-21T04:28:44.247Z,100.00
2023-07-21T04:31:12.743Z,100.00
2023-07-21T04:33:54.147Z,100.00
2023-07-21T04:36:22.081Z,100.00
2023-07-21T04:38:50.274Z,100.00
2023-07-21T04:41:20.763Z,100.00
2023-07-21T04:43:48.697Z,100.00
2023-07-21T04:46:16.608Z,100.00
2023-07-21T04:48:45.678Z,100.00
2023-07-21T04:51:18.948Z,100.00
2023-07-21T04:53:46.938Z,100.00
2023-07-21T04:56:15.509Z,100.00
2023-07-21T04:58:52.198Z,100.00
2023-07-21T05:01:20.328Z,100.00
2023-07-21T05:03:48.657Z,100.00
2023-07-21T05:06:19.000Z,100.00
2023-07-21T05:08:51.585Z,100.00
2023-07-21T05:11:19.757Z,100.00
2023-07-21T05:13:49.667Z,100.00
2023-07-21T05:16:25.493Z,100.00
2023-07-21T05:19:06.170Z,100.00
2023-07-21T05:21:39.251Z,100.00
2023-07-21T05:24:26.775Z,100.00
2023-07-21T05:26:57.403Z,100.00
2023-07-21T05:29:47.604Z,100.00
2023-07-21T05:32:17.177Z,100.00
2023-07-21T05:34:53.962Z,100.00
2023-07-21T05:37:23.352Z,100.00
2023-07-21T05:39:53.791Z,100.00
2023-07-21T05:42:25.939Z,100.00
2023-07-21T05:44:55.792Z,100.00
2023-07-21T05:47:24.037Z,100.00
2023-07-21T05:50:02.243Z,100.00
2023-07-21T05:52:34.538Z,100.00
2023-07-21T05:55:04.317Z,100.00
2023-07-21T05:57:34.443Z,100.00
2023-07-21T06:00:02.779Z,100.00
2023-07-21T06:02:41.111Z,100.00
2023-07-21T06:05:12.351Z,100.00
2023-07-21T06:08:10.993Z,100.00
2023-07-21T06:10:58.092Z,100.00
2023-07-21T06:13:37.143Z,100.00
2023-07-21T06:16:25.267Z,100.00
2023-07-21T06:18:53.669Z,100.00
2023-07-21T06:21:22.409Z,100.00
2023-07-21T06:23:52.879Z,100.00
2023-07-21T06:26:21.107Z,100.00
2023-07-21T06:28:49.121Z,100.00
2023-07-21T06:31:19.438Z,100.00
2023-07-21T06:33:52.296Z,100.00
2023-07-21T06:36:47.505Z,100.00
2023-07-21T06:39:37.029Z,98.88
2023-07-21T06:42:23.694Z,96.39
2023-07-21T06:45:19.287Z,96.80
2023-07-21T06:48:15.774Z,98.54
2023-07-21T06:50:58.631Z,98.31
2023-07-21T06:53:26.905Z,100.00
2023-07-21T06:55:56.224Z,96.88
2023-07-21T06:58:24.388Z,94.59
2023-07-21T07:00:53.527Z,96.83
2023-07-21T07:03:21.998Z,94.46
2023-07-21T07:05:51.356Z,94.26
2023-07-21T07:08:19.343Z,96.24
2023-07-21T07:10:50.026Z,94.82
2023-07-21T07:13:19.331Z,95.22
2023-07-21T07:15:51.136Z,95.35
2023-07-21T07:18:19.212Z,96.66
2023-07-21T07:20:51.244Z,96.74
2023-07-21T07:23:19.940Z,95.35
2023-07-21T07:25:49.727Z,91.82
2023-07-21T07:28:20.751Z,89.25
2023-07-21T07:30:49.521Z,89.83
2023-07-21T07:33:18.325Z,89.04
2023-07-21T07:35:53.460Z,86.88
2023-07-21T07:38:26.364Z,85.09
2023-07-21T07:40:54.429Z,84.68
2023-07-21T07:43:23.677Z,82.98
2023-07-21T07:45:51.715Z,81.99
2023-07-21T07:48:19.663Z,77.83
2023-07-21T07:50:49.815Z,79.95
2023-07-21T07:53:18.190Z,79.44
2023-07-21T07:55:46.723Z,77.42
2023-07-21T07:58:15.026Z,76.91
2023-07-21T08:00:46.770Z,74.93
2023-07-21T08:03:15.524Z,74.73
2023-07-21T08:05:43.504Z,77.91
2023-07-21T08:08:13.578Z,72.84
2023-07-21T08:10:43.254Z,75.26
2023-07-21T08:13:11.353Z,75.60
2023-07-21T08:15:41.203Z,75.34
2023-07-21T08:18:12.838Z,77.99
2023-07-21T08:20:41.663Z,79.58
2023-07-21T08:23:23.009Z,78.92
2023-07-21T08:25:51.662Z,77.86
2023-07-21T08:28:19.759Z,79.17
2023-07-21T08:30:57.356Z,79.35
2023-07-21T08:33:29.186Z,77.14
2023-07-21T08:35:57.361Z,76.00
2023-07-21T08:38:26.447Z,75.70
2023-07-21T08:41:04.026Z,72.93
2023-07-21T08:43:32.551Z,71.90
2023-07-21T08:46:02.528Z,68.96
2023-07-21T08:48:33.054Z,66.48
2023-07-21T08:51:01.454Z,65.74
2023-07-21T08:53:29.991Z,64.50
2023-07-21T08:55:59.291Z,69.84
2023-07-21T08:58:28.217Z,69.03
2023-07-21T09:00:57.966Z,68.04
2023-07-21T09:03:27.565Z,67.88
2023-07-21T09:05:59.132Z,68.60
2023-07-21T09:08:29.861Z,66.69
2023-07-21T09:11:01.792Z,65.84
2023-07-21T09:13:31.165Z,65.83
2023-07-21T09:16:00.722Z,68.21
2023-07-21T09:18:30.341Z,70.32
2023-07-21T09:20:59.952Z,67.45
2023-07-21T09:23:31.092Z,63.55
2023-07-21T09:26:01.391Z,64.81
2023-07-21T09:28:42.021Z,62.32
2023-07-21T09:31:13.404Z,63.66
2023-07-21T09:33:44.096Z,65.83
2023-07-21T09:36:15.029Z,58.97
2023-07-21T09:38:43.652Z,58.74
2023-07-21T09:41:13.475Z,59.25
2023-07-21T09:43:42.413Z,58.90
2023-07-21T09:48:43.450Z,59.11
2023-07-21T09:51:13.466Z,59.72
2023-07-21T09:53:42.614Z,60.63
2023-07-21T09:56:12.098Z,61.70
2023-07-21T09:58:47.621Z,58.53
2023-07-21T10:01:17.251Z,60.40
2023-07-21T10:03:46.562Z,56.04
2023-07-21T10:06:17.113Z,57.81
2023-07-21T10:08:45.902Z,57.58
2023-07-21T10:11:15.068Z,54.37
2023-07-21T10:13:46.818Z,57.23
2023-07-21T10:16:15.938Z,52.34
2023-07-21T10:19:03.867Z,55.07
2023-07-21T10:21:48.592Z,51.59
2023-07-21T10:24:24.842Z,53.51
2023-07-21T10:26:56.356Z,57.68
2023-07-21T10:29:24.381Z,56.21
2023-07-21T10:31:54.187Z,53.90
2023-07-21T10:34:26.953Z,52.59
2023-07-21T10:37:02.777Z,48.94
2023-07-21T10:39:32.939Z,55.49
2023-07-21T10:42:02.476Z,55.51
2023-07-21T10:44:40.471Z,54.52
2023-07-21T10:47:15.152Z,56.82
2023-07-21T10:49:43.692Z,51.35
2023-07-21T10:52:13.099Z,53.87
2023-07-21T10:54:41.305Z,53.86
2023-07-21T10:57:10.444Z,55.22
2023-07-21T10:59:39.305Z,55.75
2023-07-21T11:02:09.779Z,52.89
2023-07-21T11:04:40.731Z,54.09
2023-07-21T11:07:08.768Z,55.93
2023-07-21T11:09:46.810Z,58.99
2023-07-21T11:12:14.934Z,60.62
2023-07-21T11:14:42.932Z,60.33
2023-07-21T11:17:10.878Z,63.12
2023-07-21T11:19:41.080Z,64.14
2023-07-21T11:22:09.603Z,65.73
2023-07-21T11:24:39.211Z,60.25
2023-07-21T11:27:11.561Z,62.91
2023-07-21T11:29:42.259Z,57.77
2023-07-21T11:32:19.933Z,57.35
2023-07-21T11:34:48.539Z,54.61
2023-07-21T11:37:17.211Z,59.62
2023-07-21T11:39:57.349Z,53.88
2023-07-21T11:42:25.818Z,52.91
2023-07-21T11:44:54.713Z,51.18
2023-07-21T11:47:23.151Z,53.20
2023-07-21T11:49:56.882Z,51.57
2023-07-21T11:52:27.110Z,55.99
2023-07-21T11:54:59.288Z,58.31
2023-07-21T11:57:29.139Z,56.99
2023-07-21T11:59:57.261Z,59.63
2023-07-21T12:02:25.336Z,59.55
2023-07-21T12:04:54.086Z,60.59
2023-07-21T12:07:22.797Z,61.76
2023-07-21T12:09:52.137Z,62.73
2023-07-21T12:12:21.703Z,62.79
2023-07-21T12:14:50.256Z,63.22
2023-07-21T12:17:21.398Z,63.16
2023-07-21T12:19:51.067Z,64.42
2023-07-21T12:22:19.125Z,64.56
2023-07-21T12:24:47.131Z,64.65
2023-07-21T12:27:15.180Z,64.55
2023-07-21T12:29:46.565Z,65.52
2023-07-21T12:32:15.463Z,65.50
2023-07-21T12:34:43.935Z,66.14
2023-07-21T12:37:12.245Z,66.95
2023-07-21T12:39:40.334Z,67.80
2023-07-21T12:42:09.609Z,69.59
2023-07-21T12:44:37.779Z,72.11
2023-07-21T12:47:07.829Z,74.64
2023-07-21T12:49:35.941Z,77.04
2023-07-21T12:52:04.079Z,78.71
2023-07-21T12:54:31.997Z,82.11
2023-07-21T12:57:00.643Z,84.59
2023-07-21T12:59:28.604Z,86.88
2023-07-21T13:01:56.676Z,88.01
2023-07-21T13:04:26.422Z,84.55
2023-07-21T13:06:55.884Z,86.62
2023-07-21T13:09:25.363Z,88.12
2023-07-21T13:11:54.763Z,89.41
2023-07-21T13:14:23.047Z,91.26
2023-07-21T13:16:51.090Z,92.41
2023-07-21T13:19:19.109Z,92.23
2023-07-21T13:21:48.479Z,88.59
2023-07-21T13:24:16.418Z,87.47
2023-07-21T13:26:44.327Z,89.71
2023-07-21T13:29:13.774Z,92.29
2023-07-21T13:31:42.097Z,90.74
2023-07-21T13:34:10.188Z,88.36
2023-07-21T13:36:38.310Z,87.75
2023-07-21T13:39:07.720Z,84.44
2023-07-21T13:41:35.608Z,85.77
2023-07-21T13:44:03.504Z,90.59
2023-07-21T13:46:31.641Z,84.30
2023-07-21T13:48:59.859Z,84.38
2023-07-21T13:51:27.812Z,82.17
2023-07-21T13:53:55.903Z,80.99
2023-07-21T13:56:26.184Z,81.10
2023-07-21T13:58:54.768Z,80.35
2023-07-21T14:01:22.697Z,79.99
2023-07-21T14:03:50.951Z,80.95
2023-07-21T14:06:19.370Z,79.40
2023-07-21T14:08:47.650Z,77.78
2023-07-21T14:11:15.530Z,73.19
2023-07-21T14:13:44.698Z,69.16
2023-07-21T14:16:12.703Z,69.33
2023-07-21T14:18:40.643Z,70.07
2023-07-21T14:21:09.754Z,69.59
2023-07-21T14:23:37.772Z,70.34
2023-07-21T14:26:05.813Z,68.64
2023-07-21T14:28:33.775Z,68.54
2023-07-21T14:31:03.233Z,67.25
2023-07-21T14:33:31.132Z,69.15
2023-07-21T14:35:59.061Z,67.76
2023-07-21T14:38:27.202Z,69.21
2023-07-21T14:40:55.134Z,67.09
2023-07-21T14:43:23.764Z,65.95
2023-07-21T14:45:52.208Z,65.20
2023-07-21T14:48:21.820Z,62.67
2023-07-21T14:50:50.420Z,54.06
2023-07-21T14:53:18.805Z,52.59
2023-07-21T14:55:46.807Z,51.21
2023-07-21T14:58:14.635Z,51.11
2023-07-21T15:00:42.691Z,49.53
2023-07-21T15:03:10.721Z,48.42
2023-07-21T15:05:40.289Z,49.80
2023-07-21T15:08:08.817Z,51.19
2023-07-21T15:10:37.097Z,50.99
2023-07-21T15:13:05.259Z,49.89
2023-07-21T15:15:33.440Z,48.79
2023-07-21T15:18:01.958Z,47.92
2023-07-21T15:20:30.123Z,48.56
2023-07-21T15:22:59.901Z,47.86
2023-07-21T15:25:28.117Z,47.60
2023-07-21T15:27:56.362Z,48.91
2023-07-21T15:30:24.631Z,51.89
2023-07-21T15:32:55.845Z,48.71
2023-07-21T15:35:24.062Z,48.77
2023-07-21T15:37:52.133Z,48.76
2023-07-21T15:40:22.462Z,47.73
2023-07-21T15:42:50.762Z,49.02
2023-07-21T15:45:19.062Z,49.06
2023-07-21T15:47:47.247Z,46.92
2023-07-21T15:50:16.285Z,45.98
2023-07-21T15:52:45.037Z,46.78
2023-07-21T15:55:14.372Z,47.66
2023-07-21T15:57:43.972Z,48.92
2023-07-21T16:00:17.062Z,50.50
2023-07-21T16:02:46.391Z,51.36
2023-07-21T16:05:15.503Z,51.60
2023-07-21T16:07:43.842Z,47.91
2023-07-21T16:10:13.047Z,50.10
2023-07-21T16:12:41.760Z,51.19
2023-07-21T16:15:14.488Z,48.22
2023-07-21T16:17:43.027Z,48.78
2023-07-21T16:20:13.753Z,50.73
2023-07-21T16:22:43.477Z,53.51
2023-07-21T16:25:12.842Z,56.08
2023-07-21T16:27:41.227Z,56.02
2023-07-21T16:30:12.774Z,54.60
2023-07-21T16:32:41.099Z,55.89
2023-07-21T16:35:13.212Z,56.77
2023-07-21T16:37:41.778Z,56.61
2023-07-21T16:40:13.888Z,57.33
2023-07-21T16:42:42.378Z,57.52
2023-07-21T16:45:14.326Z,57.62
2023-07-21T16:47:42.973Z,57.76
2023-07-21T16:50:12.768Z,57.04
2023-07-21T16:52:41.401Z,58.96
2023-07-21T16:55:10.520Z,61.39
2023-07-21T16:57:38.695Z,60.88
2023-07-21T17:00:13.423Z,64.01
2023-07-21T17:02:43.168Z,62.68
2023-07-21T17:07:42.268Z,67.73
2023-07-21T17:10:11.538Z,70.97
2023-07-21T17:12:39.814Z,71.43
2023-07-21T17:15:10.935Z,74.55
2023-07-21T17:17:39.089Z,79.12
2023-07-21T17:20:13.417Z,84.09
2023-07-21T17:22:45.420Z,87.00
2023-07-21T17:25:13.817Z,88.47
2023-07-21T17:27:41.741Z,90.86
2023-07-21T17:30:11.109Z,92.50
2023-07-21T17:32:39.503Z,93.49
2023-07-21T17:35:10.177Z,95.03
2023-07-21T17:37:38.299Z,95.87
2023-07-21T17:40:09.976Z,97.17
2023-07-21T17:42:38.033Z,95.82
2023-07-21T17:45:07.194Z,94.58
2023-07-21T17:47:35.186Z,92.24
2023-07-21T17:50:04.600Z,93.77
2023-07-21T17:52:34.026Z,92.97
2023-07-21T17:55:04.120Z,93.26
2023-07-21T17:57:33.351Z,94.08
2023-07-21T18:00:01.503Z,94.57
2023-07-21T18:02:29.735Z,94.20
2023-07-21T18:04:57.608Z,94.42
2023-07-21T18:07:25.770Z,95.33
2023-07-21T18:09:55.149Z,94.86
2023-07-21T18:12:23.411Z,94.26
2023-07-21T18:14:52.810Z,94.82
2023-07-21T18:17:20.895Z,93.80
2023-07-21T18:19:52.491Z,94.51
2023-07-21T18:22:20.473Z,95.84
2023-07-21T18:24:48.691Z,94.12
2023-07-21T18:27:18.392Z,92.37
2023-07-21T18:29:46.266Z,91.57
2023-07-21T18:32:14.168Z,92.08
2023-07-21T18:34:42.155Z,92.65
2023-07-21T18:37:10.185Z,92.40
2023-07-21T18:39:38.569Z,92.86
2023-07-21T18:42:07.230Z,93.09
2023-07-21T18:44:36.615Z,93.66
2023-07-21T18:47:05.054Z,91.37
2023-07-21T18:49:33.320Z,91.26
2023-07-21T18:52:01.257Z,91.22
2023-07-21T18:54:29.206Z,90.23
2023-07-21T18:56:57.353Z,90.32
2023-07-21T18:59:25.309Z,89.96
2023-07-21T19:01:54.785Z,91.00
2023-07-21T19:04:22.974Z,91.27
2023-07-21T19:06:50.972Z,91.87
2023-07-21T19:09:18.800Z,92.63
2023-07-21T19:11:46.697Z,92.41
2023-07-21T19:14:14.652Z,93.48
2023-07-21T19:16:42.558Z,93.58
2023-07-21T19:19:11.962Z,93.82
2023-07-21T19:21:40.063Z,93.96
2023-07-21T19:24:08.021Z,94.33
2023-07-21T19:26:35.954Z,94.30
2023-07-21T19:29:04.960Z,95.55
2023-07-21T19:31:35.490Z,96.09
2023-07-21T19:34:03.938Z,96.55
2023-07-21T19:36:33.627Z,96.67
2023-07-21T19:39:01.755Z,96.71
2023-07-21T19:41:29.808Z,96.68
2023-07-21T19:43:57.797Z,97.25
2023-07-21T19:46:26.917Z,98.38
2023-07-21T19:48:54.994Z,98.88
2023-07-21T19:51:23.126Z,98.66
2023-07-21T19:53:52.723Z,98.65
2023-07-21T19:56:20.589Z,98.50
2023-07-21T19:58:48.526Z,98.87
2023-07-21T20:01:17.323Z,98.50
2023-07-21T20:03:45.383Z,98.87
2023-07-21T20:06:13.461Z,99.86
2023-07-21T20:08:41.354Z,100.00
2023-07-21T20:11:10.722Z,99.24
2023-07-21T20:13:38.600Z,100.00
2023-07-21T20:16:09.321Z,99.79
2023-07-21T20:18:38.344Z,100.00
2023-07-21T20:21:06.992Z,100.00
2023-07-21T20:23:35.890Z,100.00
2023-07-21T20:26:06.491Z,100.00
2023-07-21T20:28:36.299Z,100.00
2023-07-21T20:31:04.193Z,100.00
2023-07-21T20:33:32.056Z,100.00
2023-07-21T20:36:00.048Z,100.00
2023-07-21T20:38:31.501Z,100.00
2023-07-21T20:41:08.241Z,100.00
2023-07-21T20:43:38.952Z,100.00
2023-07-21T20:46:07.108Z,100.00
2023-07-21T20:48:35.110Z,100.00
2023-07-21T20:51:03.229Z,100.00
2023-07-21T20:53:31.062Z,100.00
2023-07-21T20:55:59.327Z,100.00
2023-07-21T20:58:27.419Z,100.00
2023-07-21T21:01:01.404Z,100.00
2023-07-21T21:03:30.209Z,100.00
2023-07-21T21:05:58.828Z,100.00
2023-07-21T21:08:27.233Z,100.00
2023-07-21T21:10:55.640Z,100.00
2023-07-21T21:13:24.600Z,100.00
2023-07-21T21:15:54.366Z,100.00
2023-07-21T21:18:23.787Z,100.00
2023-07-21T21:20:54.947Z,100.00
2023-07-21T21:23:23.558Z,100.00
2023-07-21T21:25:52.758Z,100.00
2023-07-21T21:28:20.649Z,100.00
2023-07-21T21:30:48.534Z,100.00
2023-07-21T21:33:16.448Z,100.00
2023-07-21T21:35:47.625Z,100.00
2023-07-21T21:38:15.417Z,100.00
2023-07-21T21:40:43.337Z,100.00
2023-07-21T21:43:11.262Z,100.00
2023-07-21T21:45:40.242Z,100.00
2023-07-21T21:48:08.380Z,100.00
2023-07-21T21:50:36.210Z,100.00
2023-07-21T21:53:05.483Z,100.00
2023-07-21T21:55:33.516Z,100.00
2023-07-21T21:58:01.338Z,100.00
2023-07-21T22:00:29.149Z,100.00
2023-07-21T22:02:57.114Z,100.00
2023-07-21T22:05:25.138Z,100.00
2023-07-21T22:07:53.038Z,100.00
2023-07-21T22:10:22.423Z,100.00
2023-07-21T22:12:50.294Z,100.00
2023-07-21T22:15:18.655Z,100.00
2023-07-21T22:17:47.343Z,100.00
2023-07-21T22:20:18.279Z,100.00
2023-07-21T22:22:46.416Z,100.00
2023-07-21T22:25:14.361Z,100.00
2023-07-21T22:27:43.765Z,100.00
2023-07-21T22:30:12.004Z,100.00
2023-07-21T22:32:40.014Z,100.00
2023-07-21T22:35:08.621Z,100.00
2023-07-21T22:37:36.649Z,100.00
2023-07-21T22:40:05.715Z,100.00
2023-07-21T22:42:33.674Z,100.00
2023-07-21T22:45:02.996Z,100.00
2023-07-21T22:47:31.144Z,100.00
2023-07-21T22:49:59.108Z,100.00
2023-07-21T22:52:27.154Z,100.00
2023-07-21T22:54:55.378Z,100.00
2023-07-21T22:57:23.302Z,100.00
2023-07-21T22:59:51.401Z,100.00
2023-07-21T23:02:22.175Z,100.00
2023-07-21T23:04:50.282Z,100.00
2023-07-21T23:07:18.203Z,100.00
2023-07-21T23:09:46.353Z,100.00
2023-07-21T23:12:14.523Z,100.00
2023-07-21T23:14:42.611Z,100.00
2023-07-21T23:17:10.491Z,100.00
2023-07-21T23:19:39.810Z,100.00
2023-07-21T23:22:07.778Z,100.00
2023-07-21T23:24:36.068Z,100.00
2023-07-21T23:27:04.478Z,100.00
2023-07-21T23:29:32.577Z,100.00
2023-07-21T23:32:00.611Z,100.00
2023-07-21T23:34:28.507Z,100.00
2023-07-21T23:36:57.763Z,100.00
2023-07-21T23:39:25.656Z,100.00
2023-07-21T23:41:53.600Z,100.00
2023-07-21T23:44:21.488Z,100.00
2023-07-21T23:46:49.358Z,100.00
2023-07-21T23:49:17.612Z,100.00
2023-07-21T23:51:45.794Z,100.00
2023-07-21T23:54:15.477Z,100.00
2023-07-21T23:56:43.537Z,100.00
2023-07-21T23:59:11.694Z,100.00
